Time;durP1;ratioP1;P1;durP2;ratioP2;P2;SDS_P1;SDS_P2;PMS_P1;PMS_P2;Temp;Humidity;BMP_temperature;BMP_pressure;BME280_temperature;BME280_humidity;BME280_pressure;Samples;Min_cycle;Max_cycle;Signal;HPM_P1;HPM_P2
2022/10/06 00:01:40;;;;;;;0.47;0.47;;;16.70;99.90;;;;;;5003994;28;20194;-63
2022/10/06 00:04:06;;;;;;;1.60;0.35;;;15.00;99.90;;;;;;4986596;28;20202;-63
2022/10/06 00:06:34;;;;;;;0.90;0.40;;;15.00;99.90;;;;;;4996898;28;20209;-63
2022/10/06 00:09:01;;;;;;;4.70;0.80;;;15.00;99.90;;;;;;5007697;28;20726;-63
2022/10/06 00:11:28;;;;;;;0.50;0.50;;;15.00;99.90;;;;;;4978396;28;20209;-62
2022/10/06 00:13:55;;;;;;;4.50;0.75;;;15.00;99.90;;;;;;4985982;28;20317;-62
2022/10/06 00:16:22;;;;;;;0.45;0.40;;;15.00;99.90;;;;;;5008826;28;20209;-62
2022/10/06 00:18:49;;;;;;;2.67;0.77;;;15.00;99.90;;;;;;4994008;28;20983;-63
2022/10/06 00:21:16;;;;;;;2.00;0.60;;;14.90;99.90;;;;;;5009145;28;20765;-62
2022/10/06 00:23:44;;;;;;;0.85;0.50;;;14.90;99.90;;;;;;5008353;28;20611;-63
2022/10/06 00:26:15;;;;;;;0.50;0.50;;;14.90;99.90;;;;;;4986096;28;20675;-63
2022/10/06 00:28:42;;;;;;;2.00;0.65;;;14.80;99.90;;;;;;4983148;28;20269;-62
2022/10/06 00:31:09;;;;;;;1.85;0.60;;;15.00;99.90;;;;;;4987415;28;20199;-62
2022/10/06 00:33:37;;;;;;;3.53;0.90;;;14.80;99.90;;;;;;4979676;28;20214;-63
2022/10/06 00:36:04;;;;;;;2.22;0.60;;;14.80;99.90;;;;;;5005818;28;20960;-62
2022/10/06 00:38:31;;;;;;;3.25;0.75;;;14.70;99.90;;;;;;4994804;28;20206;-62
2022/10/06 00:40:59;;;;;;;1.67;0.70;;;14.90;99.90;;;;;;4981735;28;21012;-63
2022/10/06 00:43:43;;;;;;;0.75;0.38;;;14.80;99.90;;;;;;4994273;28;20675;-63
2022/10/06 00:46:13;;;;;;;5.47;1.25;;;14.80;99.90;;;;;;4997069;28;21249;-63
2022/10/06 00:48:40;;;;;;;1.25;0.60;;;14.90;99.90;;;;;;4987779;28;20237;-63
2022/10/06 00:51:07;;;;;;;3.92;0.98;;;14.80;99.90;;;;;;5004140;28;20198;-62
2022/10/06 00:53:35;;;;;;;0.57;0.57;;;14.70;99.90;;;;;;4997365;28;20233;-62
2022/10/06 00:56:03;;;;;;;6.18;1.13;;;14.70;99.90;;;;;;4981825;28;20209;-63
2022/10/06 00:58:31;;;;;;;1.98;0.80;;;14.70;99.90;;;;;;5007560;28;20206;-63
2022/10/06 01:00:59;;;;;;;3.38;0.90;;;14.70;99.90;;;;;;4992914;28;20256;-62
2022/10/06 01:03:29;;;;;;;2.53;0.90;;;14.70;99.90;;;;;;4988048;28;20218;-62
2022/10/06 01:05:58;;;;;;;3.22;0.77;;;14.70;99.90;;;;;;4997058;28;20206;-62
2022/10/06 01:08:25;;;;;;;3.83;0.90;;;14.70;99.90;;;;;;5004679;28;20289;-62
2022/10/06 01:10:52;;;;;;;3.40;0.77;;;14.70;99.90;;;;;;5005406;28;20234;-62
2022/10/06 01:13:21;;;;;;;1.35;0.73;;;14.70;99.90;;;;;;4968618;28;20222;-63
2022/10/06 01:15:52;;;;;;;5.78;0.73;;;14.70;99.90;;;;;;4986520;28;20206;-63
2022/10/06 01:18:21;;;;;;;3.90;0.80;;;;;;;;;;4993088;28;20764;-63
2022/10/06 01:20:53;;;;;;;2.33;1.33;;;14.70;99.90;;;;;;4993702;28;20309;-62
2022/10/06 01:23:21;;;;;;;3.05;1.00;;;14.70;99.90;;;;;;4997175;28;20226;-62
2022/10/06 01:25:48;;;;;;;3.60;0.90;;;14.70;99.90;;;;;;4983824;28;20209;-62
2022/10/06 01:28:15;;;;;;;3.72;1.00;;;14.70;99.90;;;;;;4976997;28;20214;-62
2022/10/06 01:30:49;;;;;;;2.13;0.80;;;14.10;99.90;;;;;;4994668;28;20241;-62
2022/10/06 01:33:16;;;;;;;6.25;1.42;;;13.80;99.90;;;;;;4990087;28;20313;-63
2022/10/06 01:35:46;;;;;;;2.25;0.82;;;14.50;99.90;;;;;;4991947;28;20207;-63
2022/10/06 01:38:12;;;;;;;4.03;1.27;;;14.50;99.90;;;;;;4996571;28;20208;-62
2022/10/06 01:40:41;;;;;;;3.00;1.17;;;14.70;99.90;;;;;;4992383;28;20213;-62
2022/10/06 01:43:07;;;;;;;2.40;0.90;;;14.50;99.90;;;;;;4979443;28;20221;-62
2022/10/06 01:45:34;;;;;;;4.43;1.10;;;14.40;99.90;;;;;;4986439;28;20202;-62
2022/10/06 01:48:01;;;;;;;1.95;0.85;;;14.40;99.90;;;;;;5009851;28;20198;-62
2022/10/06 01:50:28;;;;;;;2.42;0.80;;;14.40;99.90;;;;;;4984179;28;20744;-62
2022/10/06 01:52:56;;;;;;;8.35;1.48;;;14.30;99.90;;;;;;5006615;28;20193;-62
2022/10/06 01:55:23;;;;;;;3.65;1.02;;;11.50;99.90;;;;;;4991360;28;20229;-62
2022/10/06 01:57:52;;;;;;;8.27;1.00;;;14.60;99.90;;;;;;5006851;28;20241;-62
2022/10/06 02:00:20;;;;;;;4.65;1.10;;;14.30;99.90;;;;;;4972377;28;20249;-62
2022/10/06 02:02:47;;;;;;;5.93;1.15;;;14.30;99.90;;;;;;4984747;28;20202;-62
2022/10/06 02:05:14;;;;;;;3.47;0.82;;;14.30;99.90;;;;;;4987036;28;20201;-63
2022/10/06 02:07:41;;;;;;;4.72;1.42;;;14.10;99.90;;;;;;4997998;28;20206;-62
2022/10/06 02:10:08;;;;;;;7.18;0.90;;;14.00;99.90;;;;;;5005474;28;20237;-62
2022/10/06 02:12:35;;;;;;;6.45;1.20;;;14.20;99.90;;;;;;5006202;28;20202;-62
2022/10/06 02:15:05;;;;;;;8.82;1.20;;;14.20;99.90;;;;;;4981269;28;20754;-62
2022/10/06 02:17:31;;;;;;;4.93;2.13;;;14.20;99.90;;;;;;4996448;28;20198;-62
2022/10/06 02:19:58;;;;;;;3.78;1.13;;;13.80;99.90;;;;;;4985933;28;20638;-62
2022/10/06 02:22:25;;;;;;;7.28;1.48;;;14.20;99.90;;;;;;5009341;28;20226;-62
2022/10/06 02:24:52;;;;;;;3.42;1.20;;;14.20;99.90;;;;;;5003380;28;20211;-62
2022/10/06 02:27:18;;;;;;;4.32;1.50;;;14.10;99.90;;;;;;5006572;28;20317;-62
2022/10/06 02:29:47;;;;;;;7.97;1.10;;;13.00;99.90;;;;;;4972126;28;20234;-63
2022/10/06 02:32:15;;;;;;;13.90;1.48;;;13.80;99.90;;;;;;4996629;28;20210;-62
2022/10/06 02:34:42;;;;;;;3.63;1.30;;;14.00;99.90;;;;;;5005417;28;20210;-62
2022/10/06 02:37:09;;;;;;;4.05;1.13;;;14.00;99.90;;;;;;4990884;28;20211;-63
2022/10/06 02:39:36;;;;;;;8.00;1.05;;;14.10;99.90;;;;;;5006688;28;20209;-62
2022/10/06 02:42:04;;;;;;;1.38;0.90;;;14.00;99.90;;;;;;5005685;28;20668;-62
2022/10/06 02:44:31;;;;;;;9.02;1.30;;;12.30;99.90;;;;;;4988860;28;20202;-62
2022/10/06 02:46:58;;;;;;;6.18;0.95;;;14.60;99.90;;;;;;4937727;28;22504;-62
2022/10/06 02:49:27;;;;;;;5.05;1.17;;;14.00;99.90;;;;;;4998643;28;20202;-61
2022/10/06 02:51:54;;;;;;;4.20;1.17;;;14.10;99.90;;;;;;4977457;28;20740;-62
2022/10/06 02:54:21;;;;;;;8.77;1.40;;;13.90;99.90;;;;;;5008221;28;20296;-62
2022/10/06 02:56:49;;;;;;;4.25;1.00;;;13.90;99.90;;;;;;5006213;28;20638;-62
2022/10/06 02:59:15;;;;;;;7.53;1.60;;;13.90;99.90;;;;;;5005100;28;20806;-62
2022/10/06 03:01:42;;;;;;;6.00;1.13;;;13.80;99.90;;;;;;4977212;28;20211;-62
2022/10/06 03:04:10;;;;;;;4.80;0.85;;;13.80;99.90;;;;;;4991271;28;20209;-62
2022/10/06 03:06:39;;;;;;;3.33;1.10;;;13.70;99.90;;;;;;4988444;28;20672;-61
2022/10/06 03:09:07;;;;;;;2.22;0.90;;;13.60;99.90;;;;;;4981470;28;20210;-62
2022/10/06 03:11:36;;;;;;;4.65;1.23;;;13.80;99.90;;;;;;5007391;28;20264;-61
2022/10/06 03:14:03;;;;;;;5.95;1.52;;;13.70;99.90;;;;;;5007165;28;20213;-62
2022/10/06 03:16:32;;;;;;;5.25;1.17;;;13.70;99.90;;;;;;4999386;28;20260;-61
2022/10/06 03:19:00;;;;;;;2.58;1.00;;;13.70;99.90;;;;;;4976879;28;20206;-61
2022/10/06 03:21:29;;;;;;;6.40;1.30;;;13.70;99.90;;;;;;4996058;28;20213;-62
2022/10/06 03:23:58;;;;;;;3.97;1.13;;;13.70;99.90;;;;;;4987719;28;20279;-62
2022/10/06 03:26:26;;;;;;;3.90;1.02;;;13.70;99.90;;;;;;4979351;28;20206;-61
2022/10/06 03:28:54;;;;;;;5.57;1.10;;;13.60;99.90;;;;;;5005736;28;20632;-62
2022/10/06 03:31:21;;;;;;;5.50;1.10;;;13.60;99.90;;;;;;5001410;28;20229;-61
2022/10/06 03:33:47;;;;;;;6.60;1.20;;;13.60;99.90;;;;;;4962635;28;20211;-62
2022/10/06 03:36:16;;;;;;;1.83;0.85;;;13.60;99.90;;;;;;5004003;28;20198;-62
2022/10/06 03:38:44;;;;;;;5.80;1.30;;;13.50;99.90;;;;;;4980175;28;20198;-62
2022/10/06 03:41:14;;;;;;;6.15;1.20;;;13.60;99.90;;;;;;5002944;28;20221;-62
2022/10/06 03:43:43;;;;;;;4.15;1.30;;;13.40;99.90;;;;;;4999031;28;20207;-63
2022/10/06 03:46:12;;;;;;;2.83;1.13;;;13.50;99.90;;;;;;4996859;28;20670;-63
2022/10/06 03:48:39;;;;;;;3.28;0.70;;;13.50;99.90;;;;;;4975650;28;20226;-64
2022/10/06 03:51:10;;;;;;;7.07;1.40;;;13.50;99.90;;;;;;4970980;28;20236;-63
2022/10/06 03:53:37;;;;;;;3.95;1.40;;;13.40;99.90;;;;;;4999621;28;20269;-62
2022/10/06 03:56:07;;;;;;;9.02;1.20;;;13.60;99.90;;;;;;4968227;28;20245;-63
2022/10/06 03:58:36;;;;;;;5.28;2.17;;;13.40;99.90;;;;;;5003083;28;20195;-63
2022/10/06 04:01:07;;;;;;;3.55;1.33;;;13.40;99.90;;;;;;4995550;28;20226;-63
2022/10/06 04:03:34;;;;;;;7.38;1.30;;;13.50;99.90;;;;;;4998635;28;20214;-63
2022/10/06 04:06:03;;;;;;;5.70;1.40;;;13.40;99.90;;;;;;4960046;28;20218;-62
2022/10/06 04:08:31;;;;;;;4.82;1.23;;;13.30;99.90;;;;;;4998922;28;20211;-63
2022/10/06 04:11:05;;;;;;;4.45;1.13;;;13.30;99.90;;;;;;4966025;28;20626;-63
2022/10/06 04:13:32;;;;;;;8.50;1.95;;;13.30;99.90;;;;;;5003935;28;20356;-63
2022/10/06 04:16:09;;;;;;;5.30;1.35;;;13.30;99.90;;;;;;5001182;28;20200;-63
2022/10/06 04:18:37;;;;;;;8.43;1.23;;;13.20;99.90;;;;;;4967584;28;20649;-62
2022/10/06 04:21:04;;;;;;;6.25;1.23;;;13.20;99.90;;;;;;4970621;28;20409;-63
2022/10/06 04:23:31;;;;;;;10.00;1.92;;;13.20;99.90;;;;;;5000777;28;20257;-62
2022/10/06 04:26:02;;;;;;;2.60;1.15;;;13.20;99.90;;;;;;4992852;28;20233;-62
2022/10/06 04:28:29;;;;;;;8.93;1.40;;;13.20;99.90;;;;;;4979679;28;20279;-62
2022/10/06 04:30:57;;;;;;;2.90;1.27;;;13.10;99.90;;;;;;5001327;28;20249;-63
2022/10/06 04:33:25;;;;;;;4.13;1.33;;;13.20;99.90;;;;;;4980890;28;20199;-63
2022/10/06 04:35:58;;;;;;;9.70;1.60;;;13.20;99.90;;;;;;4970537;28;20225;-63
2022/10/06 04:38:26;;;;;;;3.03;1.15;;;13.10;99.90;;;;;;4977254;28;20226;-64
2022/10/06 04:40:53;;;;;;;3.60;1.45;;;13.10;99.90;;;;;;4967195;28;21357;-63
2022/10/06 04:43:20;;;;;;;8.88;1.48;;;12.80;99.90;;;;;;4968788;28;20217;-62
2022/10/06 04:45:47;;;;;;;11.73;1.70;;;13.10;99.90;;;;;;4990854;28;20613;-62
2022/10/06 04:48:14;;;;;;;8.77;1.73;;;12.90;99.90;;;;;;4960631;28;20230;-63
2022/10/06 04:50:42;;;;;;;6.68;1.55;;;13.00;99.90;;;;;;4982430;28;20230;-63
2022/10/06 04:53:09;;;;;;;5.97;1.20;;;13.00;99.90;;;;;;4973960;28;20222;-63
2022/10/06 04:55:35;;;;;;;9.55;1.45;;;13.00;99.90;;;;;;4977620;28;20202;-62
2022/10/06 04:58:02;;;;;;;5.65;1.63;;;13.00;99.90;;;;;;4985104;28;20226;-62
2022/10/06 05:00:29;;;;;;;6.45;1.17;;;12.80;99.90;;;;;;4974316;28;20786;-62
2022/10/06 05:02:56;;;;;;;9.02;1.88;;;12.90;99.90;;;;;;4988092;28;20747;-63
2022/10/06 05:05:23;;;;;;;8.20;1.45;;;12.50;99.90;;;;;;4967019;28;20221;-62
2022/10/06 05:07:51;;;;;;;9.60;1.27;;;12.90;99.90;;;;;;4974075;28;20720;-62
2022/10/06 05:10:18;;;;;;;5.63;1.23;;;12.90;99.90;;;;;;4987926;28;20412;-63
2022/10/06 05:12:44;;;;;;;5.85;1.25;;;12.90;99.90;;;;;;5004624;28;20201;-63
2022/10/06 05:15:11;;;;;;;8.02;1.52;;;12.90;99.90;;;;;;4978394;28;20213;-63
2022/10/06 05:17:38;;;;;;;4.97;1.27;;;12.90;99.90;;;;;;5008504;28;20682;-63
2022/10/06 05:20:06;;;;;;;12.00;1.48;;;12.80;99.90;;;;;;4964718;28;20807;-64
2022/10/06 05:22:33;;;;;;;10.30;1.55;;;12.90;99.90;;;;;;4994692;28;20233;-63
2022/10/06 05:25:01;;;;;;;11.32;1.95;;;12.90;99.90;;;;;;4954628;28;20219;-62
2022/10/06 05:27:28;;;;;;;6.68;1.40;;;13.40;99.90;;;;;;4983734;28;20323;-63
2022/10/06 05:29:55;;;;;;;9.68;1.95;;;12.80;99.90;;;;;;4988753;28;20283;-62
2022/10/06 05:32:21;;;;;;;5.95;0.98;;;12.70;99.90;;;;;;4990194;28;20766;-63
2022/10/06 05:34:48;;;;;;;2.10;1.00;;;12.80;99.90;;;;;;5001573;28;20285;-63
2022/10/06 05:37:15;;;;;;;6.70;1.40;;;12.80;99.90;;;;;;4985767;28;20235;-63
2022/10/06 05:39:42;;;;;;;6.18;1.63;;;12.70;99.90;;;;;;4971426;28;20218;-63
2022/10/06 05:42:10;;;;;;;6.50;1.63;;;12.80;99.90;;;;;;4978924;28;20221;-63
2022/10/06 05:44:37;;;;;;;1.95;1.00;;;12.80;99.90;;;;;;4988871;28;20211;-63
2022/10/06 05:47:03;;;;;;;11.27;1.55;;;12.70;99.90;;;;;;5006130;28;20209;-63
2022/10/06 05:49:30;;;;;;;5.10;1.35;;;12.70;99.90;;;;;;5002494;28;23346;-63
2022/10/06 05:51:57;;;;;;;8.63;2.13;;;12.70;99.90;;;;;;4975126;28;20250;-63
2022/10/06 05:54:24;;;;;;;6.18;1.60;;;13.90;99.90;;;;;;4965818;28;20594;-63
2022/10/06 05:56:50;;;;;;;2.17;1.00;;;12.70;99.90;;;;;;4995199;28;20216;-62
2022/10/06 05:59:19;;;;;;;10.50;1.17;;;12.10;99.90;;;;;;5002159;28;20209;-63
2022/10/06 06:01:45;;;;;;;7.15;1.88;;;12.70;99.90;;;;;;4995264;28;20198;-63
2022/10/06 06:04:13;;;;;;;4.70;1.20;;;12.70;99.90;;;;;;5001687;28;20975;-63
2022/10/06 06:06:42;;;;;;;6.93;1.65;;;12.70;99.90;;;;;;5007693;28;20210;-62
2022/10/06 06:09:10;;;;;;;5.32;1.50;;;12.50;99.90;;;;;;4959945;28;20241;-63
2022/10/06 06:11:39;;;;;;;3.63;1.27;;;12.70;99.90;;;;;;4996813;28;20304;-63
2022/10/06 06:14:08;;;;;;;4.63;1.90;;;12.70;99.90;;;;;;5002612;28;20202;-63
2022/10/06 06:16:37;;;;;;;8.23;2.13;;;12.70;99.90;;;;;;4987699;28;20195;-64
2022/10/06 06:19:06;;;;;;;10.38;1.58;;;12.70;99.90;;;;;;4974501;28;20246;-62
2022/10/06 06:21:32;;;;;;;4.72;1.60;;;12.70;99.90;;;;;;4993146;28;20201;-62
2022/10/06 06:23:59;;;;;;;5.90;1.30;;;12.70;99.90;;;;;;4987612;28;21622;-63
2022/10/06 06:26:28;;;;;;;5.93;1.73;;;;;;;;;;4981051;28;20215;-63
2022/10/06 06:28:59;;;;;;;9.80;2.10;;;14.50;99.90;;;;;;4995494;28;20702;-63
2022/10/06 06:31:28;;;;;;;5.47;1.67;;;12.60;99.90;;;;;;5007704;28;20225;-62
2022/10/06 06:33:57;;;;;;;6.07;1.55;;;12.70;99.90;;;;;;4995629;28;20276;-62
2022/10/06 06:36:26;;;;;;;6.55;1.30;;;12.70;99.90;;;;;;5006394;28;21115;-63
2022/10/06 06:38:55;;;;;;;9.25;1.30;;;12.90;99.90;;;;;;4986289;28;20197;-63
2022/10/06 06:41:24;;;;;;;6.18;1.85;;;12.80;99.90;;;;;;4975687;28;20791;-63
2022/10/06 06:43:51;;;;;;;4.00;1.23;;;12.70;99.90;;;;;;4992354;28;20225;-63
2022/10/06 06:46:20;;;;;;;3.58;1.15;;;12.70;99.90;;;;;;5006995;28;20197;-63
2022/10/06 06:48:48;;;;;;;10.93;1.80;;;12.70;99.90;;;;;;4991609;28;20228;-62
2022/10/06 06:51:20;;;;;;;7.63;1.80;;;12.80;99.90;;;;;;5004914;28;20237;-62
2022/10/06 06:53:46;;;;;;;7.20;1.30;;;12.80;99.90;;;;;;4987663;28;20229;-62
2022/10/06 06:56:13;;;;;;;4.80;1.33;;;16.10;99.90;;;;;;4974095;28;20918;-63
2022/10/06 06:58:45;;;;;;;4.45;1.83;;;12.80;99.90;;;;;;4990996;28;20210;-62
2022/10/06 07:01:13;;;;;;;4.72;1.40;;;12.90;99.90;;;;;;4986607;28;20290;-64
2022/10/06 07:03:41;;;;;;;5.72;1.30;;;12.60;99.90;;;;;;4990875;28;20209;-63
2022/10/06 07:06:10;;;;;;;3.97;1.50;;;12.90;99.90;;;;;;4986862;28;21027;-63
2022/10/06 07:08:41;;;;;;;4.28;1.63;;;13.70;99.90;;;;;;4991158;28;20198;-63
2022/10/06 07:11:16;;;;;;;6.03;1.70;;;12.10;99.90;;;;;;4979556;28;20233;-63
2022/10/06 07:13:43;;;;;;;8.48;1.73;;;12.90;99.90;;;;;;4994098;28;20305;-63
2022/10/06 07:27:11;;;;;;;5.28;1.38;;;13.10;99.90;;;;;;4979315;28;20245;-63
2022/10/06 07:29:37;;;;;;;8.13;1.75;;;13.00;99.90;;;;;;4997165;28;20241;-62
2022/10/06 07:32:05;;;;;;;5.93;1.67;;;13.10;99.90;;;;;;4997263;28;20287;-63
2022/10/06 07:34:31;;;;;;;7.32;1.52;;;13.10;99.90;;;;;;4979010;28;20219;-63
2022/10/06 07:36:59;;;;;;;8.05;1.60;;;13.20;99.90;;;;;;4984402;28;20209;-63
2022/10/06 07:39:27;;;;;;;8.00;1.35;;;13.40;99.90;;;;;;4992043;28;20217;-63
2022/10/06 07:41:54;;;;;;;5.15;1.25;;;13.20;99.90;;;;;;5004928;28;20214;-62
2022/10/06 07:44:20;;;;;;;7.20;1.70;;;13.20;99.90;;;;;;4968544;28;20695;-62
2022/10/06 07:46:47;;;;;;;14.65;1.92;;;13.30;99.90;;;;;;4999107;28;20202;-62
2022/10/06 07:49:16;;;;;;;9.63;2.25;;;13.20;99.90;;;;;;4993000;28;20248;-62
2022/10/06 07:51:43;;;;;;;9.40;2.05;;;13.10;99.90;;;;;;4994774;28;20601;-62
2022/10/06 07:54:10;;;;;;;5.80;1.45;;;13.30;99.90;;;;;;5002388;28;20205;-63
2022/10/06 07:56:38;;;;;;;12.95;2.15;;;13.40;99.90;;;;;;4986440;28;20222;-63
2022/10/06 07:59:05;;;;;;;12.60;1.73;;;13.40;99.90;;;;;;4966711;28;20664;-62
2022/10/06 08:01:32;;;;;;;7.63;1.50;;;13.40;99.90;;;;;;4998614;28;20702;-63
2022/10/06 08:03:58;;;;;;;15.25;1.80;;;13.50;99.90;;;;;;4988804;28;20205;-63
2022/10/06 08:06:25;;;;;;;5.97;1.70;;;13.50;99.90;;;;;;4989526;28;21494;-63
2022/10/06 08:08:52;;;;;;;9.55;2.20;;;13.50;99.90;;;;;;4994431;28;20202;-63
2022/10/06 08:11:19;;;;;;;6.43;1.80;;;13.50;99.90;;;;;;4949374;28;20280;-63
2022/10/06 08:13:48;;;;;;;12.05;2.03;;;13.50;99.90;;;;;;4975559;28;20214;-62
2022/10/06 08:16:17;;;;;;;9.88;1.38;;;13.60;99.90;;;;;;4964420;28;20242;-63
2022/10/06 08:18:48;;;;;;;6.25;2.08;;;13.60;99.90;;;;;;5006416;28;20203;-62
2022/10/06 08:21:17;;;;;;;4.70;1.40;;;13.60;99.90;;;;;;4992830;28;20206;-62
2022/10/06 08:23:46;;;;;;;4.78;1.30;;;13.60;99.90;;;;;;4998628;28;20967;-62
2022/10/06 08:26:14;;;;;;;12.73;2.05;;;13.70;99.90;;;;;;4975275;28;20708;-63
2022/10/06 08:28:44;;;;;;;7.82;1.63;;;13.70;99.90;;;;;;5000376;28;20198;-64
2022/10/06 08:31:14;;;;;;;9.73;2.13;;;13.80;99.90;;;;;;4972218;28;20198;-62
2022/10/06 08:33:42;;;;;;;15.20;2.22;;;13.80;99.90;;;;;;4991876;28;20221;-63
2022/10/06 08:36:13;;;;;;;10.20;1.98;;;13.80;99.90;;;;;;4979770;28;21039;-62
2022/10/06 08:38:41;;;;;;;5.55;1.60;;;13.80;99.90;;;;;;5004102;28;20226;-63
2022/10/06 08:41:19;;;;;;;6.38;1.98;;;13.90;99.90;;;;;;5008904;28;20210;-62
2022/10/06 08:43:50;;;;;;;7.15;1.63;;;14.00;99.90;;;;;;5005993;28;20209;-62
2022/10/06 08:46:19;;;;;;;10.43;1.77;;;13.90;99.90;;;;;;4965660;28;20217;-63
2022/10/06 08:48:46;;;;;;;10.23;2.50;;;15.60;99.90;;;;;;4993149;28;20217;-62
2022/10/06 08:51:23;;;;;;;6.63;1.45;;;14.00;99.90;;;;;;4995960;28;20305;-63
2022/10/06 08:54:02;;;;;;;7.15;1.83;;;14.00;99.90;;;;;;5007089;28;20221;-62
2022/10/06 08:56:34;;;;;;;7.03;1.35;;;14.30;99.90;;;;;;4990249;28;20208;-63
2022/10/06 08:59:03;;;;;;;8.80;1.55;;;14.10;99.90;;;;;;5006231;28;20202;-63
2022/10/06 09:01:40;;;;;;;13.35;1.63;;;14.10;99.90;;;;;;4973644;28;20681;-63
2022/10/06 09:04:07;;;;;;;5.88;1.38;;;14.20;99.90;;;;;;4993262;28;20694;-62
2022/10/06 09:06:49;;;;;;;7.75;1.60;;;14.20;99.90;;;;;;4989577;28;20507;-63
2022/10/06 09:09:25;;;;;;;10.52;1.98;;;14.20;99.90;;;;;;5001316;28;20699;-63
2022/10/06 09:12:00;;;;;;;7.68;2.00;;;14.20;99.90;;;;;;5004707;28;20269;-62
2022/10/06 09:14:36;;;;;;;10.23;1.50;;;14.50;99.90;;;;;;4960494;28;20309;-63
2022/10/06 09:17:09;;;;;;;8.20;1.80;;;14.40;99.90;;;;;;4996931;28;20287;-63
2022/10/06 09:19:43;;;;;;;5.72;1.33;;;14.40;99.90;;;;;;4992451;28;20213;-62
2022/10/06 09:22:17;;;;;;;10.10;2.33;;;14.40;99.90;;;;;;4997830;28;20214;-62
2022/10/06 09:24:49;;;;;;;9.18;1.63;;;14.40;99.90;;;;;;5009435;28;20251;-63
2022/10/06 09:27:19;;;;;;;7.63;1.60;;;14.30;99.90;;;;;;4999228;28;20866;-63
2022/10/06 09:29:48;;;;;;;10.70;1.58;;;14.40;99.90;;;;;;4972763;28;22106;-63
2022/10/06 09:32:17;;;;;;;8.07;1.92;;;14.50;99.90;;;;;;4986076;28;20729;-63
2022/10/06 09:34:49;;;;;;;11.43;1.70;;;14.50;99.90;;;;;;4989817;28;20233;-64
2022/10/06 09:37:15;;;;;;;8.18;1.60;;;14.50;99.90;;;;;;4995095;28;20809;-63
2022/10/06 09:39:46;;;;;;;6.25;1.50;;;14.50;99.90;;;;;;5005739;28;22033;-62
2022/10/06 09:42:18;;;;;;;4.97;1.23;;;14.50;99.90;;;;;;5008868;28;20202;-63
2022/10/06 09:45:02;;;;;;;15.73;1.67;;;14.50;99.90;;;;;;4989314;28;20338;-63
2022/10/06 09:47:43;;;;;;;10.38;1.70;;;14.60;99.90;;;;;;5008417;28;20199;-63
2022/10/06 09:50:22;;;;;;;8.70;2.50;;;14.70;99.90;;;;;;4980463;28;20588;-62
2022/10/06 09:53:04;;;;;;;13.00;2.95;;;14.70;99.90;;;;;;4996995;28;20230;-63
2022/10/06 09:55:34;;;;;;;6.72;1.88;;;14.70;99.90;;;;;;5006879;28;20210;-61
2022/10/06 09:58:01;;;;;;;8.45;1.98;;;14.80;99.90;;;;;;4991177;28;20704;-62
2022/10/06 10:00:29;;;;;;;4.90;1.25;;;14.60;99.90;;;;;;4979097;28;20207;-62
2022/10/06 10:03:01;;;;;;;9.40;1.90;;;14.60;99.90;;;;;;4999276;28;20711;-63
2022/10/06 10:05:31;;;;;;;8.13;2.00;;;14.70;99.90;;;;;;4980547;28;20199;-62
2022/10/06 10:08:02;;;;;;;9.00;2.13;;;14.80;99.90;;;;;;4994184;28;20222;-62
2022/10/06 10:10:29;;;;;;;9.68;1.65;;;14.80;99.90;;;;;;5007407;28;20687;-63
2022/10/06 10:12:58;;;;;;;5.95;1.30;;;14.90;99.90;;;;;;4995607;28;20226;-63
2022/10/06 10:15:29;;;;;;;7.05;1.33;;;14.70;99.90;;;;;;5007743;28;20222;-62
2022/10/06 10:17:59;;;;;;;7.90;1.27;;;14.90;99.90;;;;;;4975024;28;20737;-63
2022/10/06 10:20:33;;;;;;;2.70;1.08;;;14.90;99.90;;;;;;4983778;28;20213;-63
2022/10/06 10:23:16;;;;;;;8.43;1.85;;;14.90;99.90;;;;;;4976808;28;20227;-63
2022/10/06 10:26:07;;;;;;;10.13;1.52;;;14.90;99.90;;;;;;5008039;28;20597;-62
2022/10/06 10:29:06;;;;;;;11.23;1.45;;;15.00;99.90;;;;;;4995543;28;20233;-62
2022/10/06 10:31:46;;;;;;;5.82;1.67;;;15.10;99.90;;;;;;4971020;28;20572;-63
2022/10/06 10:34:28;;;;;;;8.57;1.75;;;15.00;99.90;;;;;;4998406;28;20320;-63
2022/10/06 10:37:02;;;;;;;9.23;1.95;;;15.20;99.90;;;;;;4982842;28;20283;-63
2022/10/06 10:39:33;;;;;;;6.22;1.55;;;15.20;99.90;;;;;;4990359;28;20924;-63
2022/10/06 10:42:04;;;;;;;4.05;1.25;;;15.20;99.90;;;;;;5005542;28;20206;-63
2022/10/06 10:44:36;;;;;;;4.50;1.20;;;15.10;99.90;;;;;;4997115;28;20209;-63
2022/10/06 10:47:13;;;;;;;5.25;1.30;;;15.30;99.90;;;;;;4973229;28;20962;-63
2022/10/06 10:49:45;;;;;;;5.72;1.48;;;15.00;99.90;;;;;;4991536;28;20385;-62
2022/10/06 10:52:15;;;;;;;4.45;1.38;;;14.90;99.90;;;;;;4975872;28;20278;-63
2022/10/06 10:54:47;;;;;;;5.13;1.48;;;15.00;99.90;;;;;;4991378;28;20221;-62
2022/10/06 10:57:16;;;;;;;5.57;1.33;;;15.00;99.90;;;;;;4974289;28;20229;-63
2022/10/06 10:59:57;;;;;;;8.48;1.58;;;14.80;99.90;;;;;;4987155;28;20617;-63
2022/10/06 11:02:24;;;;;;;5.68;1.30;;;14.70;99.90;;;;;;4935408;28;20210;-63
2022/10/06 11:04:56;;;;;;;5.38;1.40;;;15.10;99.90;;;;;;5004850;28;20747;-63
2022/10/06 11:07:29;;;;;;;5.90;1.38;;;15.20;99.90;;;;;;4968218;28;20210;-64
2022/10/06 11:10:03;;;;;;;5.68;1.45;;;15.30;99.90;;;;;;4994248;28;20217;-63
2022/10/06 11:12:51;;;;;;;7.50;1.90;;;15.30;99.90;;;;;;4987799;28;20991;-63
2022/10/06 11:15:27;;;;;;;2.78;1.25;;;15.40;99.90;;;;;;4983429;28;20206;-63
2022/10/06 11:18:00;;;;;;;9.13;1.33;;;15.60;99.90;;;;;;4961995;28;20326;-63
2022/10/06 11:20:42;;;;;;;12.38;1.75;;;15.40;99.90;;;;;;4985026;28;21179;-63
2022/10/06 11:23:40;;;;;;;8.93;1.70;;;15.30;99.90;;;;;;4971953;28;20320;-64
2022/10/06 11:26:15;;;;;;;3.88;1.30;;;15.30;99.90;;;;;;4983382;28;20263;-64
2022/10/06 11:28:47;;;;;;;4.90;1.50;;;15.20;99.90;;;;;;4998140;28;20201;-64
2022/10/06 11:31:26;;;;;;;6.93;1.40;;;15.20;99.90;;;;;;4983470;28;20272;-63
2022/10/06 11:33:55;;;;;;;7.00;1.30;;;15.40;99.90;;;;;;4966541;28;23242;-63
2022/10/06 11:36:34;;;;;;;4.05;1.25;;;15.40;99.90;;;;;;4982589;28;20198;-63
2022/10/06 11:39:10;;;;;;;9.30;1.13;;;15.30;99.90;;;;;;4977809;28;20774;-63
2022/10/06 11:41:42;;;;;;;5.80;1.27;;;15.30;99.90;;;;;;4985557;28;20209;-63
2022/10/06 11:44:17;;;;;;;4.13;1.20;;;15.20;99.90;;;;;;5000088;28;20238;-63
2022/10/06 11:46:49;;;;;;;4.20;1.08;;;15.20;99.90;;;;;;4984603;28;20242;-63
2022/10/06 11:49:56;;;;;;;3.40;1.27;;;15.20;99.90;;;;;;4948201;28;20752;-64
2022/10/06 11:52:45;;;;;;;7.35;1.30;;;15.40;99.90;;;;;;4983423;28;20575;-63
2022/10/06 11:55:17;;;;;;;5.85;1.45;;;;;;;;;;4979845;28;20272;-63
2022/10/06 11:58:15;;;;;;;8.48;1.52;;;15.30;99.90;;;;;;4988913;28;20679;-63
2022/10/06 12:00:51;;;;;;;9.43;1.35;;;15.40;99.90;;;;;;4936813;28;20209;-63
2022/10/06 12:03:47;;;;;;;9.68;2.38;;;15.50;99.90;;;;;;4938567;28;20210;-63
2022/10/06 12:06:57;;;;;;;5.30;1.45;;;15.40;99.90;;;;;;4953422;28;20221;-63
2022/10/06 12:09:45;;;;;;;5.80;1.45;;;15.40;99.90;;;;;;4954507;28;20284;-63
2022/10/06 12:12:53;;;;;;;5.63;1.30;;;15.10;99.90;;;;;;4976871;28;20250;-64
2022/10/06 12:15:59;;;;;;;5.03;1.10;;;15.20;99.90;;;;;;4993008;28;20198;-64
2022/10/06 12:18:38;;;;;;;5.75;1.20;;;15.20;99.90;;;;;;4973119;28;20216;-63
2022/10/06 12:21:12;;;;;;;3.25;1.25;;;15.00;99.90;;;;;;4966696;28;20225;-63
2022/10/06 12:23:51;;;;;;;3.97;1.45;;;15.00;99.90;;;;;;4988915;28;20233;-63
2022/10/06 12:26:45;;;;;;;3.88;0.98;;;14.30;99.90;;;;;;4975903;28;20493;-63
2022/10/06 12:29:33;;;;;;;7.10;1.42;;;15.20;99.90;;;;;;4979087;28;20225;-63
2022/10/06 12:32:11;;;;;;;4.75;1.08;;;15.40;99.90;;;;;;4997544;28;21040;-62
2022/10/06 12:34:55;;;;;;;5.10;1.67;;;15.60;99.90;;;;;;4975714;28;20327;-63
2022/10/06 12:37:35;;;;;;;4.55;1.02;;;;;;;;;;4962635;28;20232;-62
2022/10/06 12:40:39;;;;;;;6.25;1.20;;;15.50;99.90;;;;;;4979122;28;20230;-63
2022/10/06 12:43:31;;;;;;;4.95;1.17;;;15.50;99.90;;;;;;4971799;28;20370;-63
2022/10/06 12:45:59;;;;;;;5.50;1.65;;;15.50;99.90;;;;;;4982984;28;20233;-63
2022/10/06 12:48:33;;;;;;;9.90;1.10;;;15.80;99.90;;;;;;4977006;28;20328;-63
2022/10/06 12:51:08;;;;;;;6.63;1.38;;;15.60;99.90;;;;;;4931698;28;20230;-63
2022/10/06 12:53:40;;;;;;;2.25;1.08;;;15.60;99.90;;;;;;4965750;28;20233;-63
2022/10/06 12:56:25;;;;;;;9.32;1.90;;;15.70;99.90;;;;;;4965013;28;20658;-63
2022/10/06 12:58:54;;;;;;;6.03;1.20;;;15.80;99.90;;;;;;4966436;28;20201;-63
2022/10/06 13:01:22;;;;;;;7.72;1.40;;;15.70;99.90;;;;;;4988260;28;20975;-63
2022/10/06 13:03:50;;;;;;;2.08;0.77;;;15.70;99.90;;;;;;4982639;28;20307;-63
2022/10/06 13:06:22;;;;;;;1.90;1.00;;;15.40;99.90;;;;;;4946388;28;20666;-64
2022/10/06 13:09:04;;;;;;;5.50;1.25;;;15.80;99.90;;;;;;4971824;28;20222;-63
2022/10/06 13:11:30;;;;;;;3.10;1.10;;;15.90;99.90;;;;;;4968758;28;20236;-63
2022/10/06 13:14:30;;;;;;;2.63;0.90;;;15.90;99.90;;;;;;4979270;28;20240;-63
2022/10/06 13:16:56;;;;;;;4.13;1.17;;;15.90;99.90;;;;;;4983837;28;20203;-63
2022/10/06 13:19:27;;;;;;;6.88;1.48;;;16.60;99.90;;;;;;4958319;28;23115;-63